Flight Track Log - Related Links

Times and Time Zones

All times are in EDT time to prevent confusion due to time zone crossing. See the N6251A flight status page for this flight to view local times or setup timezone preferences in your user account.

Time Position Orientation Groundspeed Altitude Reporting Facility
EDT Latitude Longitude Course Direction KTS MPH feet Rate Location/Type
Sun 07:28:45 PM 40.5167 -74.6500 26° Northeast 94 108 3,400  Level New York TRACON
Sun 07:29:45 PM 40.5333 -74.6833 303° West 128 147 3,900 316 Climbing New York TRACON
Sun 07:30:39 PM 40.5667 -74.7167 323° Northwest 145 167 4,000 50 Climbing New York TRACON
Sun 07:31:45 PM 40.6000 -74.7500 323° Northwest 154 177 4,000  Level New York TRACON
Sun 07:32:45 PM 40.6333 -74.7333 21° North 153 176 4,000  Level New York TRACON
Sun 07:33:45 PM 40.6667 -74.7167 21° North 148 170 4,000  Level New York TRACON
Sun 07:34:00 PM 40.6351 -74.5278 26° Northeast  Level Estimated
Sun 07:34:45 PM 40.7000 -74.7167 360° North 147 169 4,000  Level New York TRACON
Sun 07:35:39 PM 40.7333 -74.7000 21° North 142 163 4,000  Level New York TRACON
Sun 07:36:39 PM 40.7833 -74.6833 14° North 140 161 4,000  Level New York TRACON
Sun 07:37:45 PM 40.8167 -74.6500 37° Northeast 142 163 4,000  Level New York TRACON
Sun 07:38:45 PM 40.8500 -74.6333 21° North 143 165 4,000  Level New York TRACON
Sun 07:39:39 PM 40.8833 -74.6167 21° North 144 166 4,000  Level New York TRACON
Sun 07:40:39 PM 40.9333 -74.6000 14° North 146 168 4,000  Level New York TRACON
Sun 07:41:39 PM 40.9667 -74.5833 21° North 143 165 4,000  Level New York TRACON
Sun 07:42:39 PM 41.0000 -74.5667 21° North 144 166 4,000  Level New York TRACON
Sun 07:43:39 PM 41.0333 -74.5500 21° North 145 167 4,000  Level New York TRACON
Sun 07:44:33 PM 41.0667 -74.5333 21° North 146 168 4,000  Level New York TRACON
Sun 07:45:33 PM 41.1167 -74.5167 14° North 148 170 4,000  Level New York TRACON
Sun 07:46:33 PM 41.1500 -74.5000 21° North 148 170 4,000  Level New York TRACON
Sun 07:47:33 PM 41.1833 -74.4833 21° North 147 169 4,000  Level New York TRACON
Sun 07:48:33 PM 41.2333 -74.4667 14° North 147 169 4,000  Level New York TRACON
Sun 07:49:33 PM 41.2667 -74.4333 37° Northeast 150 173 4,000  Level New York TRACON
Sun 07:50:33 PM 41.2833 -74.4000 56° Northeast 150 173 4,000  Level New York TRACON
Sun 07:51:27 PM 41.3167 -74.3667 37° Northeast 150 173 4,000  Level New York TRACON
Sun 07:52:27 PM 41.3333 -74.3167 66° East 151 174 4,000  Level New York TRACON
Sun 07:53:27 PM 41.3667 -74.2833 37° Northeast 150 173 4,000  Level New York TRACON
Sun 07:54:27 PM 41.4000 -74.2333 48° Northeast 150 173 4,000  Level New York TRACON
Sun 07:55:33 PM 41.4167 -74.1833 66° East 150 173 4,000  Level New York TRACON
Sun 07:56:27 PM 41.4500 -74.1500 37° Northeast 149 171 4,000  Level New York TRACON
Sun 07:57:33 PM 41.4833 -74.1167 37° Northeast 142 163 4,000  Level New York TRACON
Sun 07:58:33 PM 41.5000 -74.0667 66° East 141 162 4,000  Level New York TRACON
Sun 07:59:27 PM 41.5167 -74.0167 66° East 145 167 4,000  Level New York TRACON
Sun 08:00:27 PM 41.5333 -73.9667 66° East 152 175 4,000  Level New York TRACON
Sun 08:01:27 PM 41.5667 -73.9167 48° Northeast 152 175 4,000  Level New York TRACON
Sun 08:02:33 PM 41.5833 -73.8667 66° East 152 175 4,000 -143 Level New York TRACON
Sun 08:03:33 PM 41.6000 -73.8167 66° East 163 188 3,700 -450 Descending New York TRACON
Sun 08:04:33 PM 41.6167 -73.7667 66° East 161 185 3,100 -350 Descending New York TRACON
Sun 08:05:33 PM 41.6500 -73.7167 48° Northeast 147 169 3,000 -50 Descending New York TRACON
Sun 08:06:33 PM 41.6667 -73.6667 66° East 144 166 3,000  Level New York TRACON
Sun 08:07:39 PM 41.7000 -73.6333 37° Northeast 150 173 3,000  Level New York TRACON
Sun 08:08:39 PM 41.7167 -73.6667 304° West 139 160 3,000 -53 Level New York TRACON
Sun 08:09:33 PM 41.7333 -73.7000 304° West 144 166 2,900 -100 Descending New York TRACON
Sun 08:10:39 PM 41.7167 -73.7333 236° Southwest 120 138 2,800 -190 Descending New York TRACON
Sun 08:11:39 PM 41.7000 -73.7667 236° Southwest 121 139 2,500 -474 Descending New York TRACON
Sun 08:12:33 PM 41.6833 -73.8000 236° Southwest 135 155 1,900 -737 Descending New York TRACON
Sun 08:13:33 PM 41.6500 -73.8333 217° Southwest 125 144 1,100 -800 Descending New York TRACON
Sun 08:15:00 PM 41.6167 -73.8833 255° West  Level FlightAware Approximate
Sun 08:22:00 PM 41.6266 -73.8842 255° West  Level Estimated

Login

Don't have an account? Register now (free) for customized features, flight alerts, and more!